createdAt,value
2022-08-07T00:00:04.585Z,0.2
2022-08-07T00:04:56.399Z,0.2
2022-08-07T00:10:29.495Z,0.2
2022-08-07T00:14:55.999Z,0.2
2022-08-07T00:20:04.665Z,0.2
2022-08-07T00:24:54.241Z,0.2
2022-08-07T00:30:02.396Z,0.2
2022-08-07T00:34:52.304Z,0.2
2022-08-07T00:39:57.279Z,0.2
2022-08-07T00:44:52.201Z,0.2
2022-08-07T00:50:52.173Z,0.2
2022-08-07T00:54:55.318Z,0.2
2022-08-07T00:59:16.429Z,0.2
2022-08-07T01:04:25.465Z,0.2
2022-08-07T01:10:12.585Z,0.2
2022-08-07T01:14:28.180Z,0.2
2022-08-07T01:19:20.791Z,0.2
2022-08-07T01:24:23.797Z,0.2
2022-08-07T01:29:17.264Z,0.2
2022-08-07T01:34:16.438Z,0.2
2022-08-07T01:39:15.743Z,0.2
2022-08-07T01:44:17.705Z,0.2
2022-08-07T01:49:22.421Z,0.2
2022-08-07T01:54:38.110Z,0.2
2022-08-07T01:58:51.784Z,0.2
2022-08-07T02:03:54.052Z,0.2
2022-08-07T02:08:56.281Z,0.2
2022-08-07T02:14:03.666Z,0.2
2022-08-07T02:18:52.799Z,0.2
2022-08-07T02:23:50.835Z,0.2
2022-08-07T02:28:48.819Z,0.2
2022-08-07T02:34:18.136Z,0.2
2022-08-07T02:38:58.873Z,0.2
2022-08-07T02:43:50.270Z,0.2
2022-08-07T02:48:56.465Z,0.2
2022-08-07T02:53:46.558Z,0.2
2022-08-07T02:58:49.170Z,0.2
2022-08-07T03:00:13.455Z,0.2
2022-08-07T03:05:08.850Z,0.2
2022-08-07T03:10:34.339Z,0.2
2022-08-07T03:15:08.792Z,0.2
2022-08-07T03:20:02.057Z,0.2
2022-08-07T03:25:02.295Z,0.2
2022-08-07T03:30:01.150Z,0.2
2022-08-07T03:35:26.975Z,0.3
2022-08-07T03:40:18.308Z,0.3
2022-08-07T03:45:20.925Z,0.4
2022-08-07T03:49:55.736Z,0.7
2022-08-07T03:55:08.052Z,1.1
2022-08-07T03:59:17.117Z,1.7
2022-08-07T04:04:19.635Z,2.6
2022-08-07T04:09:23.869Z,3.6
2022-08-07T04:14:49.168Z,3.8
2022-08-07T04:19:17.070Z,4.8
2022-08-07T04:24:41.125Z,5.9
2022-08-07T04:29:17.771Z,7
2022-08-07T04:34:37.748Z,8.2
2022-08-07T04:39:26.481Z,9.4
2022-08-07T04:44:20.590Z,10.7
2022-08-07T04:49:26.345Z,11.9
2022-08-07T04:54:16.394Z,13
2022-08-07T05:00:18.599Z,14
2022-08-07T05:04:18.225Z,15.1
2022-08-07T05:09:04.242Z,16.2
2022-08-07T05:15:05.302Z,17.3
2022-08-07T05:18:55.207Z,18.4
2022-08-07T05:23:52.330Z,19.7
2022-08-07T05:28:52.962Z,21
2022-08-07T05:34:11.298Z,22.8
2022-08-07T05:40:20.493Z,24.3
2022-08-07T05:44:14.091Z,26.3
2022-08-07T05:49:01.026Z,28.5
2022-08-07T05:54:58.657Z,30.7
2022-08-07T05:58:54.059Z,33.1
2022-08-07T06:04:02.456Z,35.4
2022-08-07T06:08:52.697Z,37.7
2022-08-07T06:14:30.254Z,39.9
2022-08-07T06:18:57.385Z,42.3
2022-08-07T06:25:01.033Z,44.2
2022-08-07T06:28:44.913Z,46.4
2022-08-07T06:33:47.919Z,48.8
2022-08-07T06:40:21.826Z,50.9
2022-08-07T06:44:06.806Z,53.4
2022-08-07T06:48:47.099Z,55.9
2022-08-07T06:56:02.226Z,57.9
2022-08-07T07:00:19.185Z,59.7
2022-08-07T07:04:05.641Z,61.7
2022-08-07T07:08:48.247Z,64
2022-08-07T07:14:03.530Z,65.8
2022-08-07T07:18:49.974Z,67.8
2022-08-07T07:24:13.929Z,69.7
2022-08-07T07:30:12.110Z,261.9
2022-08-07T07:33:38.354Z,490.7
2022-08-07T07:38:40.498Z,509.7
2022-08-07T07:44:26.872Z,524.2
2022-08-07T07:48:38.617Z,539.5
2022-08-07T07:53:36.713Z,552
2022-08-07T07:58:42.577Z,567.9
2022-08-07T08:00:00.330Z,572.5
2022-08-07T08:04:59.977Z,587.8
2022-08-07T08:10:06.910Z,605.1
2022-08-07T08:14:56.740Z,620.3
2022-08-07T08:20:32.558Z,634.1
2022-08-07T08:25:25.211Z,646.9
2022-08-07T08:29:57.840Z,661.3
2022-08-07T08:34:52.000Z,675.7
2022-08-07T08:40:00.446Z,686.6
2022-08-07T08:44:48.403Z,699.8
2022-08-07T08:50:06.953Z,711.9
2022-08-07T08:54:47.738Z,723.8
2022-08-07T08:59:17.783Z,732.5
2022-08-07T09:04:15.044Z,743.5
2022-08-07T09:09:33.160Z,750.6
2022-08-07T09:14:12.605Z,759.8
2022-08-07T09:19:56.114Z,768.8
2022-08-07T09:25:07.212Z,776.8
2022-08-07T09:30:10.073Z,783.3
2022-08-07T09:34:18.253Z,794.6
2022-08-07T09:39:59.442Z,798.8
2022-08-07T09:46:28.943Z,806.3
2022-08-07T09:50:20.554Z,805.4
2022-08-07T09:54:17.979Z,813.1
2022-08-07T09:58:54.641Z,824.8
2022-08-07T10:04:16.842Z,831.3
2022-08-07T10:08:53.972Z,840.5
2022-08-07T10:14:04.148Z,845
2022-08-07T10:18:56.314Z,848.2
2022-08-07T10:24:11.232Z,855.5
2022-08-07T10:28:53.503Z,856.1
2022-08-07T10:34:27.097Z,860
2022-08-07T10:38:52.918Z,864.4
2022-08-07T10:43:48.288Z,870.6
2022-08-07T10:48:49.639Z,872.8
2022-08-07T10:53:47.359Z,876.9
2022-08-07T10:58:48.487Z,880.9
2022-08-07T11:04:34.757Z,881.7
2022-08-07T11:08:45.642Z,884.7
2022-08-07T11:15:01.826Z,888.4
2022-08-07T11:18:43.513Z,889.2
2022-08-07T11:23:42.099Z,890.9
2022-08-07T11:28:43.273Z,890.8
2022-08-07T11:34:01.886Z,893.5
2022-08-07T11:38:59.606Z,896.5
2022-08-07T11:44:19.439Z,891.6
2022-08-07T11:48:39.331Z,888.5
2022-08-07T11:54:01.297Z,890.3
2022-08-07T11:58:40.827Z,889.1
2022-08-07T12:03:47.637Z,886.2
2022-08-07T12:08:39.089Z,882.9
2022-08-07T12:13:43.410Z,879.5
2022-08-07T12:18:34.386Z,873.5
2022-08-07T12:24:40.084Z,870.4
2022-08-07T12:28:33.280Z,867.1
2022-08-07T12:34:11.111Z,863.7
2022-08-07T12:38:57.358Z,857.5
2022-08-07T12:44:09.324Z,851.5
2022-08-07T12:48:56.087Z,844.6
2022-08-07T12:54:36.687Z,838.8
2022-08-07T12:58:36.688Z,829
2022-08-07T12:59:57.040Z,823.1
2022-08-07T13:05:10.373Z,209.5
2022-08-07T13:10:52.920Z,578.6
2022-08-07T13:14:56.744Z,354.7
2022-08-07T13:19:53.840Z,108.8
2022-08-07T13:24:55.954Z,327.1
2022-08-07T13:29:51.096Z,224.4
2022-08-07T13:34:52.436Z,485.9
2022-08-07T13:40:43.688Z,170.5
2022-08-07T13:45:21.204Z,398.6
2022-08-07T13:50:59.942Z,421.2
2022-08-07T13:54:54.944Z,425.6
2022-08-07T13:59:14.124Z,217.3
2022-08-07T14:04:35.536Z,592.2
2022-08-07T14:10:17.890Z,708.8
2022-08-07T14:14:17.089Z,659.7
2022-08-07T14:20:54.479Z,446.7
2022-08-07T14:24:34.219Z,678.4
2022-08-07T14:30:13.038Z,429.3
2022-08-07T14:34:30.553Z,587.1
2022-08-07T14:40:30.201Z,307.4
2022-08-07T14:44:18.248Z,98
2022-08-07T15:52:39.625Z,557.9
2022-08-07T15:52:59.105Z,513.5
2022-08-07T15:58:40.514Z,88.4
2022-08-07T16:00:08.287Z,154.5
2022-08-07T16:05:02.691Z,236.3
2022-08-07T16:10:04.308Z,377
2022-08-07T16:15:01.379Z,193.9
2022-08-07T16:20:03.829Z,57.9
2022-08-07T16:24:57.500Z,56.1
2022-08-07T16:30:33.741Z,57.7
2022-08-07T16:34:56.910Z,51.9
2022-08-07T16:39:55.764Z,54
2022-08-07T16:46:21.713Z,77.3
2022-08-07T16:51:13.637Z,241.6
2022-08-07T17:54:56.041Z,30.2
2022-08-07T17:58:58.381Z,28.3
2022-08-07T18:04:17.647Z,25.6
2022-08-07T18:09:09.959Z,23.1
2022-08-07T18:14:03.531Z,20.4
2022-08-07T18:22:02.869Z,17.8
2022-08-07T18:24:00.989Z,14.8
2022-08-07T18:29:01.289Z,11.7
2022-08-07T18:33:58.345Z,9
2022-08-07T18:40:18.679Z,7
2022-08-07T18:43:58.195Z,5.5
2022-08-07T18:50:47.383Z,4.4
2022-08-07T18:53:56.822Z,4.1
2022-08-07T19:03:54.318Z,1.8
2022-08-07T19:08:49.172Z,1.2
2022-08-07T19:13:45.578Z,0.8
2022-08-07T19:18:47.431Z,0.5
2022-08-07T19:24:01.795Z,0.4
2022-08-07T19:32:17.207Z,0.4
2022-08-07T19:33:59.002Z,0.3
2022-08-07T19:38:55.598Z,0.3
2022-08-07T19:43:55.668Z,0.3
2022-08-07T19:48:54.896Z,0.3
2022-08-07T19:54:57.573Z,0.3
2022-08-07T19:58:36.127Z,0.3
2022-08-07T20:03:38.237Z,0.3
2022-08-07T20:08:34.925Z,0.3
2022-08-07T20:13:34.733Z,0.3
2022-08-07T20:18:36.374Z,0.3
2022-08-07T20:23:55.047Z,0.3
2022-08-07T20:28:32.462Z,0.3
2022-08-07T20:33:40.039Z,0.3
2022-08-07T20:38:29.936Z,0.3
2022-08-07T20:43:30.040Z,0.3
2022-08-07T20:48:35.336Z,0.3
2022-08-07T20:54:15.242Z,0.3
2022-08-07T20:58:34.721Z,0.3
2022-08-07T21:00:11.218Z,0.3
2022-08-07T21:04:47.873Z,0.3
2022-08-07T21:10:02.594Z,0.2
2022-08-07T21:14:55.274Z,0.3
2022-08-07T21:20:06.329Z,0.2
2022-08-07T21:24:50.091Z,0.3
2022-08-07T21:29:54.555Z,0.3
2022-08-07T21:34:50.147Z,0.2
2022-08-07T21:39:55.125Z,0.2
2022-08-07T21:44:52.777Z,0.3
2022-08-07T21:50:05.501Z,0.3
2022-08-07T21:54:49.591Z,0.3
2022-08-07T21:59:16.037Z,0.2
2022-08-07T22:04:20.297Z,0.3
2022-08-07T22:09:13.961Z,0.3
2022-08-07T22:14:36.646Z,0.2
2022-08-07T22:19:12.298Z,0.3
2022-08-07T22:24:12.062Z,0.3
2022-08-07T22:29:15.704Z,0.2
2022-08-07T22:34:17.040Z,0.2
2022-08-07T22:39:17.125Z,0.2
2022-08-07T22:44:21.262Z,0.2
2022-08-07T22:49:17.546Z,0.2
2022-08-07T22:54:18.468Z,0.2
2022-08-07T22:58:53.496Z,0.2
2022-08-07T23:04:01.435Z,0.2
2022-08-07T23:10:05.419Z,0.2
2022-08-07T23:14:17.685Z,0.2
2022-08-07T23:18:50.136Z,0.2
2022-08-07T23:24:17.480Z,0.2
2022-08-07T23:28:57.275Z,0.2
2022-08-07T23:34:40.490Z,0.2
2022-08-07T23:38:55.910Z,0.2
2022-08-07T23:43:53.727Z,0.2
2022-08-07T23:48:48.495Z,0.2
2022-08-07T23:53:54.428Z,0.2
2022-08-07T23:58:46.169Z,0.2
